sensor_id;sensor_type;location;lat;lon;timestamp;P1;durP1;ratioP1;P2;durP2;ratioP2
64235;SDS011;50564;47.402;9.740;2022-12-29T00:04:22;1.67;;;1.15;;
64235;SDS011;50564;47.402;9.740;2022-12-29T00:09:23;0.93;;;0.70;;
64235;SDS011;50564;47.402;9.740;2022-12-29T00:14:24;1.48;;;0.95;;
64235;SDS011;50564;47.402;9.740;2022-12-29T00:19:43;1.20;;;1.00;;
64235;SDS011;50564;47.402;9.740;2022-12-29T00:25:02;1.15;;;0.80;;
64235;SDS011;50564;47.402;9.740;2022-12-29T00:30:22;1.33;;;0.80;;
64235;SDS011;50564;47.402;9.740;2022-12-29T00:35:51;2.50;;;1.50;;
64235;SDS011;50564;47.402;9.740;2022-12-29T00:40:53;2.03;;;0.90;;
64235;SDS011;50564;47.402;9.740;2022-12-29T00:46:12;1.10;;;0.80;;
64235;SDS011;50564;47.402;9.740;2022-12-29T00:51:13;2.47;;;0.80;;
64235;SDS011;50564;47.402;9.740;2022-12-29T00:56:14;1.30;;;0.55;;
64235;SDS011;50564;47.402;9.740;2022-12-29T01:01:14;1.45;;;0.80;;
64235;SDS011;50564;47.402;9.740;2022-12-29T01:06:15;1.15;;;0.90;;
64235;SDS011;50564;47.402;9.740;2022-12-29T01:11:16;1.25;;;0.63;;
64235;SDS011;50564;47.402;9.740;2022-12-29T01:16:17;2.55;;;0.98;;
64235;SDS011;50564;47.402;9.740;2022-12-29T01:21:18;0.95;;;0.60;;
64235;SDS011;50564;47.402;9.740;2022-12-29T01:26:19;1.00;;;0.80;;
64235;SDS011;50564;47.402;9.740;2022-12-29T01:31:19;1.17;;;0.68;;
64235;SDS011;50564;47.402;9.740;2022-12-29T01:36:20;0.50;;;0.50;;
64235;SDS011;50564;47.402;9.740;2022-12-29T01:41:22;0.73;;;0.60;;
64235;SDS011;50564;47.402;9.740;2022-12-29T01:46:39;0.90;;;0.60;;
64235;SDS011;50564;47.402;9.740;2022-12-29T01:51:44;0.82;;;0.70;;
64235;SDS011;50564;47.402;9.740;2022-12-29T01:56:48;0.70;;;0.60;;
64235;SDS011;50564;47.402;9.740;2022-12-29T02:01:51;1.77;;;0.70;;
64235;SDS011;50564;47.402;9.740;2022-12-29T02:06:53;0.52;;;0.52;;
64235;SDS011;50564;47.402;9.740;2022-12-29T02:12:00;1.77;;;0.80;;
64235;SDS011;50564;47.402;9.740;2022-12-29T02:17:06;1.00;;;0.60;;
64235;SDS011;50564;47.402;9.740;2022-12-29T02:37:59;0.75;;;0.60;;
64235;SDS011;50564;47.402;9.740;2022-12-29T02:53:11;1.02;;;0.82;;
64235;SDS011;50564;47.402;9.740;2022-12-29T03:08:38;1.17;;;0.70;;
64235;SDS011;50564;47.402;9.740;2022-12-29T03:19:07;1.05;;;0.65;;
64235;SDS011;50564;47.402;9.740;2022-12-29T03:24:13;0.73;;;0.68;;
64235;SDS011;50564;47.402;9.740;2022-12-29T03:29:14;0.77;;;0.50;;
64235;SDS011;50564;47.402;9.740;2022-12-29T03:34:17;0.63;;;0.60;;
64235;SDS011;50564;47.402;9.740;2022-12-29T03:39:20;1.17;;;0.47;;
64235;SDS011;50564;47.402;9.740;2022-12-29T03:44:31;1.75;;;0.73;;
64235;SDS011;50564;47.402;9.740;2022-12-29T03:49:33;0.50;;;0.50;;
64235;SDS011;50564;47.402;9.740;2022-12-29T03:54:34;0.32;;;0.32;;
64235;SDS011;50564;47.402;9.740;2022-12-29T03:59:35;2.28;;;0.88;;
64235;SDS011;50564;47.402;9.740;2022-12-29T04:04:36;0.93;;;0.70;;
64235;SDS011;50564;47.402;9.740;2022-12-29T04:09:36;1.20;;;0.77;;
64235;SDS011;50564;47.402;9.740;2022-12-29T04:14:37;1.08;;;0.73;;
64235;SDS011;50564;47.402;9.740;2022-12-29T04:19:38;8.30;;;2.83;;
64235;SDS011;50564;47.402;9.740;2022-12-29T04:24:39;7.07;;;1.27;;
64235;SDS011;50564;47.402;9.740;2022-12-29T04:29:39;1.25;;;0.95;;
64235;SDS011;50564;47.402;9.740;2022-12-29T04:34:59;1.17;;;0.80;;
64235;SDS011;50564;47.402;9.740;2022-12-29T04:39:59;1.10;;;0.70;;
64235;SDS011;50564;47.402;9.740;2022-12-29T04:45:02;1.02;;;0.50;;
64235;SDS011;50564;47.402;9.740;2022-12-29T04:50:21;1.73;;;0.65;;
64235;SDS011;50564;47.402;9.740;2022-12-29T04:55:52;3.30;;;1.48;;
64235;SDS011;50564;47.402;9.740;2022-12-29T05:00:53;2.33;;;0.68;;
64235;SDS011;50564;47.402;9.740;2022-12-29T05:05:57;3.75;;;1.08;;
64235;SDS011;50564;47.402;9.740;2022-12-29T05:10:58;1.75;;;0.90;;
64235;SDS011;50564;47.402;9.740;2022-12-29T05:15:59;2.50;;;0.82;;
64235;SDS011;50564;47.402;9.740;2022-12-29T05:20:59;2.08;;;0.90;;
64235;SDS011;50564;47.402;9.740;2022-12-29T05:26:01;0.82;;;0.75;;
64235;SDS011;50564;47.402;9.740;2022-12-29T05:31:07;1.55;;;0.80;;
64235;SDS011;50564;47.402;9.740;2022-12-29T05:36:08;1.88;;;1.20;;
64235;SDS011;50564;47.402;9.740;2022-12-29T05:41:15;3.85;;;1.20;;
64235;SDS011;50564;47.402;9.740;2022-12-29T05:46:34;1.65;;;1.00;;
64235;SDS011;50564;47.402;9.740;2022-12-29T05:51:50;0.65;;;0.60;;
64235;SDS011;50564;47.402;9.740;2022-12-29T05:56:51;1.63;;;0.88;;
64235;SDS011;50564;47.402;9.740;2022-12-29T06:01:52;1.92;;;0.90;;
64235;SDS011;50564;47.402;9.740;2022-12-29T06:06:53;6.35;;;3.47;;
64235;SDS011;50564;47.402;9.740;2022-12-29T06:12:05;2.80;;;1.65;;
64235;SDS011;50564;47.402;9.740;2022-12-29T06:17:07;4.25;;;2.10;;
64235;SDS011;50564;47.402;9.740;2022-12-29T06:22:08;3.70;;;1.98;;
64235;SDS011;50564;47.402;9.740;2022-12-29T06:27:13;8.05;;;3.58;;
64235;SDS011;50564;47.402;9.740;2022-12-29T06:32:14;3.38;;;2.28;;
64235;SDS011;50564;47.402;9.740;2022-12-29T06:37:20;6.47;;;4.20;;
64235;SDS011;50564;47.402;9.740;2022-12-29T06:42:21;6.68;;;4.10;;
64235;SDS011;50564;47.402;9.740;2022-12-29T06:47:30;4.20;;;2.65;;
64235;SDS011;50564;47.402;9.740;2022-12-29T06:52:31;4.70;;;2.90;;
64235;SDS011;50564;47.402;9.740;2022-12-29T06:57:31;5.28;;;2.67;;
64235;SDS011;50564;47.402;9.740;2022-12-29T07:02:32;3.47;;;1.95;;
64235;SDS011;50564;47.402;9.740;2022-12-29T07:07:33;4.07;;;1.70;;
64235;SDS011;50564;47.402;9.740;2022-12-29T07:12:33;5.07;;;1.30;;
64235;SDS011;50564;47.402;9.740;2022-12-29T07:17:34;1.40;;;1.08;;
64235;SDS011;50564;47.402;9.740;2022-12-29T07:22:35;3.30;;;2.08;;
64235;SDS011;50564;47.402;9.740;2022-12-29T07:27:36;1.40;;;1.00;;
64235;SDS011;50564;47.402;9.740;2022-12-29T07:32:36;5.53;;;1.00;;
64235;SDS011;50564;47.402;9.740;2022-12-29T07:37:38;2.33;;;1.23;;
64235;SDS011;50564;47.402;9.740;2022-12-29T07:42:39;3.38;;;1.80;;
64235;SDS011;50564;47.402;9.740;2022-12-29T07:47:42;5.13;;;3.08;;
64235;SDS011;50564;47.402;9.740;2022-12-29T07:52:43;4.38;;;3.00;;
64235;SDS011;50564;47.402;9.740;2022-12-29T07:57:44;3.58;;;2.50;;
64235;SDS011;50564;47.402;9.740;2022-12-29T08:02:45;7.03;;;3.95;;
64235;SDS011;50564;47.402;9.740;2022-12-29T08:07:46;5.00;;;2.35;;
64235;SDS011;50564;47.402;9.740;2022-12-29T08:12:47;4.60;;;2.15;;
64235;SDS011;50564;47.402;9.740;2022-12-29T08:17:47;5.38;;;2.97;;
64235;SDS011;50564;47.402;9.740;2022-12-29T08:22:48;3.47;;;1.92;;
64235;SDS011;50564;47.402;9.740;2022-12-29T08:27:49;2.75;;;1.60;;
64235;SDS011;50564;47.402;9.740;2022-12-29T08:32:50;2.83;;;1.35;;
64235;SDS011;50564;47.402;9.740;2022-12-29T08:37:51;1.88;;;1.30;;
64235;SDS011;50564;47.402;9.740;2022-12-29T08:42:51;2.80;;;1.33;;
64235;SDS011;50564;47.402;9.740;2022-12-29T08:47:52;6.07;;;2.30;;
64235;SDS011;50564;47.402;9.740;2022-12-29T08:52:53;5.45;;;2.80;;
64235;SDS011;50564;47.402;9.740;2022-12-29T08:57:54;4.55;;;1.85;;
64235;SDS011;50564;47.402;9.740;2022-12-29T09:02:55;4.93;;;2.30;;
64235;SDS011;50564;47.402;9.740;2022-12-29T09:07:57;5.43;;;2.35;;
64235;SDS011;50564;47.402;9.740;2022-12-29T09:12:58;3.83;;;2.08;;
64235;SDS011;50564;47.402;9.740;2022-12-29T09:17:58;16.40;;;8.77;;
64235;SDS011;50564;47.402;9.740;2022-12-29T09:22:59;18.83;;;11.23;;
64235;SDS011;50564;47.402;9.740;2022-12-29T09:28:00;10.32;;;5.38;;
64235;SDS011;50564;47.402;9.740;2022-12-29T09:33:05;11.52;;;6.00;;
64235;SDS011;50564;47.402;9.740;2022-12-29T09:38:05;14.25;;;5.97;;
64235;SDS011;50564;47.402;9.740;2022-12-29T09:48:32;9.77;;;5.70;;
64235;SDS011;50564;47.402;9.740;2022-12-29T09:53:40;7.65;;;4.60;;
64235;SDS011;50564;47.402;9.740;2022-12-29T09:58:50;4.72;;;3.25;;
64235;SDS011;50564;47.402;9.740;2022-12-29T10:03:59;8.98;;;4.75;;
64235;SDS011;50564;47.402;9.740;2022-12-29T10:24:45;10.00;;;4.35;;
64235;SDS011;50564;47.402;9.740;2022-12-29T10:29:56;5.93;;;3.40;;
64235;SDS011;50564;47.402;9.740;2022-12-29T10:35:05;6.13;;;3.55;;
64235;SDS011;50564;47.402;9.740;2022-12-29T10:40:19;12.82;;;6.53;;
64235;SDS011;50564;47.402;9.740;2022-12-29T10:45:26;10.32;;;6.03;;
64235;SDS011;50564;47.402;9.740;2022-12-29T10:50:29;9.23;;;6.18;;
64235;SDS011;50564;47.402;9.740;2022-12-29T10:55:32;7.90;;;3.47;;
64235;SDS011;50564;47.402;9.740;2022-12-29T11:00:34;4.85;;;3.42;;
64235;SDS011;50564;47.402;9.740;2022-12-29T11:10:46;5.30;;;2.60;;
64235;SDS011;50564;47.402;9.740;2022-12-29T11:15:58;8.30;;;4.13;;
64235;SDS011;50564;47.402;9.740;2022-12-29T11:21:06;7.32;;;4.25;;
64235;SDS011;50564;47.402;9.740;2022-12-29T11:31:15;13.07;;;9.27;;
64235;SDS011;50564;47.402;9.740;2022-12-29T11:36:17;7.95;;;3.63;;
64235;SDS011;50564;47.402;9.740;2022-12-29T11:41:25;4.38;;;2.35;;
64235;SDS011;50564;47.402;9.740;2022-12-29T11:46:31;3.05;;;1.90;;
64235;SDS011;50564;47.402;9.740;2022-12-29T11:51:39;5.40;;;2.70;;
64235;SDS011;50564;47.402;9.740;2022-12-29T11:56:42;6.28;;;3.08;;
64235;SDS011;50564;47.402;9.740;2022-12-29T12:01:43;5.88;;;3.40;;
64235;SDS011;50564;47.402;9.740;2022-12-29T12:07:32;9.55;;;3.25;;
64235;SDS011;50564;47.402;9.740;2022-12-29T12:12:21;2.80;;;1.70;;
64235;SDS011;50564;47.402;9.740;2022-12-29T12:22:36;5.17;;;1.97;;
64235;SDS011;50564;47.402;9.740;2022-12-29T12:27:41;3.20;;;1.77;;
64235;SDS011;50564;47.402;9.740;2022-12-29T12:58:27;4.50;;;2.92;;
64235;SDS011;50564;47.402;9.740;2022-12-29T13:09:20;6.05;;;3.72;;
64235;SDS011;50564;47.402;9.740;2022-12-29T13:20:06;5.30;;;2.25;;
64235;SDS011;50564;47.402;9.740;2022-12-29T13:35:53;5.47;;;2.28;;
64235;SDS011;50564;47.402;9.740;2022-12-29T13:41:03;4.35;;;2.30;;
64235;SDS011;50564;47.402;9.740;2022-12-29T13:46:24;8.20;;;3.50;;
64235;SDS011;50564;47.402;9.740;2022-12-29T13:51:28;9.02;;;4.50;;
64235;SDS011;50564;47.402;9.740;2022-12-29T14:01:39;9.75;;;3.35;;
64235;SDS011;50564;47.402;9.740;2022-12-29T14:06:43;4.55;;;2.65;;
64235;SDS011;50564;47.402;9.740;2022-12-29T14:11:45;5.15;;;2.13;;
64235;SDS011;50564;47.402;9.740;2022-12-29T14:16:45;3.55;;;1.80;;
64235;SDS011;50564;47.402;9.740;2022-12-29T14:21:50;5.60;;;2.22;;
64235;SDS011;50564;47.402;9.740;2022-12-29T14:26:53;4.32;;;2.20;;
64235;SDS011;50564;47.402;9.740;2022-12-29T14:31:53;3.70;;;2.00;;
64235;SDS011;50564;47.402;9.740;2022-12-29T14:47:11;2.13;;;1.48;;
64235;SDS011;50564;47.402;9.740;2022-12-29T14:52:19;4.18;;;1.80;;
64235;SDS011;50564;47.402;9.740;2022-12-29T15:02:27;6.55;;;4.47;;
64235;SDS011;50564;47.402;9.740;2022-12-29T15:07:34;9.73;;;5.05;;
64235;SDS011;50564;47.402;9.740;2022-12-29T15:12:37;5.22;;;2.15;;
64235;SDS011;50564;47.402;9.740;2022-12-29T15:17:41;4.03;;;1.75;;
64235;SDS011;50564;47.402;9.740;2022-12-29T15:22:45;3.90;;;2.38;;
64235;SDS011;50564;47.402;9.740;2022-12-29T15:27:55;6.30;;;2.47;;
64235;SDS011;50564;47.402;9.740;2022-12-29T15:32:59;3.47;;;1.92;;
64235;SDS011;50564;47.402;9.740;2022-12-29T15:38:12;4.13;;;2.63;;
64235;SDS011;50564;47.402;9.740;2022-12-29T15:48:36;5.45;;;2.83;;
64235;SDS011;50564;47.402;9.740;2022-12-29T15:53:38;5.88;;;2.97;;
64235;SDS011;50564;47.402;9.740;2022-12-29T15:58:40;14.18;;;5.43;;
64235;SDS011;50564;47.402;9.740;2022-12-29T16:03:46;2.83;;;1.50;;
64235;SDS011;50564;47.402;9.740;2022-12-29T16:08:55;2.85;;;1.65;;
64235;SDS011;50564;47.402;9.740;2022-12-29T16:13:58;2.15;;;1.58;;
64235;SDS011;50564;47.402;9.740;2022-12-29T16:18:59;5.35;;;2.13;;
64235;SDS011;50564;47.402;9.740;2022-12-29T16:24:08;5.20;;;2.63;;
64235;SDS011;50564;47.402;9.740;2022-12-29T16:29:13;7.47;;;3.15;;
64235;SDS011;50564;47.402;9.740;2022-12-29T16:34:33;3.97;;;2.53;;
64235;SDS011;50564;47.402;9.740;2022-12-29T16:39:43;2.72;;;1.90;;
64235;SDS011;50564;47.402;9.740;2022-12-29T16:44:44;5.18;;;1.95;;
64235;SDS011;50564;47.402;9.740;2022-12-29T16:49:46;9.23;;;4.43;;
64235;SDS011;50564;47.402;9.740;2022-12-29T16:54:54;8.52;;;3.88;;
64235;SDS011;50564;47.402;9.740;2022-12-29T17:00:00;8.50;;;3.50;;
64235;SDS011;50564;47.402;9.740;2022-12-29T17:05:02;7.45;;;3.42;;
64235;SDS011;50564;47.402;9.740;2022-12-29T17:10:03;8.00;;;4.20;;
64235;SDS011;50564;47.402;9.740;2022-12-29T17:15:05;5.47;;;2.67;;
64235;SDS011;50564;47.402;9.740;2022-12-29T17:25:18;8.35;;;3.00;;
64235;SDS011;50564;47.402;9.740;2022-12-29T17:30:20;8.35;;;4.82;;
64235;SDS011;50564;47.402;9.740;2022-12-29T17:35:23;5.28;;;2.55;;
64235;SDS011;50564;47.402;9.740;2022-12-29T17:40:29;3.63;;;2.08;;
64235;SDS011;50564;47.402;9.740;2022-12-29T17:50:33;3.72;;;2.15;;
64235;SDS011;50564;47.402;9.740;2022-12-29T17:55:35;6.15;;;2.33;;
64235;SDS011;50564;47.402;9.740;2022-12-29T18:00:36;4.63;;;2.30;;
64235;SDS011;50564;47.402;9.740;2022-12-29T18:05:36;3.85;;;2.22;;
64235;SDS011;50564;47.402;9.740;2022-12-29T18:10:37;4.57;;;1.83;;
64235;SDS011;50564;47.402;9.740;2022-12-29T18:15:39;2.25;;;1.50;;
64235;SDS011;50564;47.402;9.740;2022-12-29T18:20:40;6.93;;;3.50;;
64235;SDS011;50564;47.402;9.740;2022-12-29T18:26:03;12.27;;;5.68;;
64235;SDS011;50564;47.402;9.740;2022-12-29T18:31:19;6.57;;;2.20;;
64235;SDS011;50564;47.402;9.740;2022-12-29T18:36:25;3.67;;;2.03;;
64235;SDS011;50564;47.402;9.740;2022-12-29T18:41:27;7.43;;;4.13;;
64235;SDS011;50564;47.402;9.740;2022-12-29T18:46:28;8.50;;;4.47;;
64235;SDS011;50564;47.402;9.740;2022-12-29T18:51:29;5.80;;;2.92;;
64235;SDS011;50564;47.402;9.740;2022-12-29T18:56:30;6.90;;;3.90;;
64235;SDS011;50564;47.402;9.740;2022-12-29T19:01:31;7.82;;;3.53;;
64235;SDS011;50564;47.402;9.740;2022-12-29T19:06:32;10.52;;;3.55;;
64235;SDS011;50564;47.402;9.740;2022-12-29T19:11:33;5.72;;;2.33;;
64235;SDS011;50564;47.402;9.740;2022-12-29T19:16:33;5.63;;;3.25;;
64235;SDS011;50564;47.402;9.740;2022-12-29T19:21:34;6.85;;;3.15;;
64235;SDS011;50564;47.402;9.740;2022-12-29T19:26:36;4.75;;;2.17;;
64235;SDS011;50564;47.402;9.740;2022-12-29T19:31:38;5.88;;;2.58;;
64235;SDS011;50564;47.402;9.740;2022-12-29T19:36:39;7.50;;;4.65;;
64235;SDS011;50564;47.402;9.740;2022-12-29T19:41:40;9.15;;;4.53;;
64235;SDS011;50564;47.402;9.740;2022-12-29T19:46:41;6.50;;;3.33;;
64235;SDS011;50564;47.402;9.740;2022-12-29T19:51:42;3.47;;;2.03;;
64235;SDS011;50564;47.402;9.740;2022-12-29T19:56:43;4.60;;;2.28;;
64235;SDS011;50564;47.402;9.740;2022-12-29T20:01:43;4.70;;;1.80;;
64235;SDS011;50564;47.402;9.740;2022-12-29T20:06:47;4.22;;;1.95;;
64235;SDS011;50564;47.402;9.740;2022-12-29T20:11:48;3.40;;;2.03;;
64235;SDS011;50564;47.402;9.740;2022-12-29T20:16:49;5.72;;;2.10;;
64235;SDS011;50564;47.402;9.740;2022-12-29T20:21:50;3.35;;;1.80;;
64235;SDS011;50564;47.402;9.740;2022-12-29T20:26:51;5.78;;;1.80;;
64235;SDS011;50564;47.402;9.740;2022-12-29T20:31:55;3.38;;;1.60;;
64235;SDS011;50564;47.402;9.740;2022-12-29T20:36:55;3.63;;;1.85;;
64235;SDS011;50564;47.402;9.740;2022-12-29T20:41:57;3.53;;;1.85;;
64235;SDS011;50564;47.402;9.740;2022-12-29T20:46:59;3.78;;;1.67;;
64235;SDS011;50564;47.402;9.740;2022-12-29T20:52:01;4.38;;;1.70;;
64235;SDS011;50564;47.402;9.740;2022-12-29T20:57:03;2.90;;;1.73;;
64235;SDS011;50564;47.402;9.740;2022-12-29T21:02:03;2.15;;;1.35;;
64235;SDS011;50564;47.402;9.740;2022-12-29T21:07:04;2.25;;;1.50;;
64235;SDS011;50564;47.402;9.740;2022-12-29T21:12:05;5.88;;;2.08;;
64235;SDS011;50564;47.402;9.740;2022-12-29T21:17:07;3.97;;;2.00;;
64235;SDS011;50564;47.402;9.740;2022-12-29T21:22:08;3.83;;;1.73;;
64235;SDS011;50564;47.402;9.740;2022-12-29T21:27:09;4.75;;;1.77;;
64235;SDS011;50564;47.402;9.740;2022-12-29T21:32:09;3.92;;;2.03;;
64235;SDS011;50564;47.402;9.740;2022-12-29T21:37:10;2.85;;;1.75;;
64235;SDS011;50564;47.402;9.740;2022-12-29T21:42:11;3.78;;;1.73;;
64235;SDS011;50564;47.402;9.740;2022-12-29T21:47:12;2.67;;;1.55;;
64235;SDS011;50564;47.402;9.740;2022-12-29T21:52:12;2.88;;;1.60;;
64235;SDS011;50564;47.402;9.740;2022-12-29T21:57:14;3.03;;;1.55;;
64235;SDS011;50564;47.402;9.740;2022-12-29T22:02:36;2.83;;;1.77;;
64235;SDS011;50564;47.402;9.740;2022-12-29T22:07:55;5.57;;;2.20;;
64235;SDS011;50564;47.402;9.740;2022-12-29T22:13:14;5.43;;;2.20;;
64235;SDS011;50564;47.402;9.740;2022-12-29T22:18:15;3.80;;;1.90;;
64235;SDS011;50564;47.402;9.740;2022-12-29T22:23:15;4.40;;;1.80;;
64235;SDS011;50564;47.402;9.740;2022-12-29T22:28:16;2.08;;;1.45;;
64235;SDS011;50564;47.402;9.740;2022-12-29T22:33:16;3.60;;;1.60;;
64235;SDS011;50564;47.402;9.740;2022-12-29T22:38:20;4.32;;;2.08;;
64235;SDS011;50564;47.402;9.740;2022-12-29T22:43:22;3.65;;;1.50;;
64235;SDS011;50564;47.402;9.740;2022-12-29T22:48:23;3.88;;;1.83;;
64235;SDS011;50564;47.402;9.740;2022-12-29T22:53:24;2.40;;;1.50;;
64235;SDS011;50564;47.402;9.740;2022-12-29T22:58:25;4.65;;;1.52;;
64235;SDS011;50564;47.402;9.740;2022-12-29T23:03:25;2.10;;;1.38;;
64235;SDS011;50564;47.402;9.740;2022-12-29T23:08:27;2.47;;;1.48;;
64235;SDS011;50564;47.402;9.740;2022-12-29T23:13:29;3.05;;;1.70;;
64235;SDS011;50564;47.402;9.740;2022-12-29T23:18:31;3.20;;;1.80;;
64235;SDS011;50564;47.402;9.740;2022-12-29T23:23:32;3.30;;;1.58;;
64235;SDS011;50564;47.402;9.740;2022-12-29T23:28:52;2.95;;;2.00;;
64235;SDS011;50564;47.402;9.740;2022-12-29T23:33:53;4.30;;;2.58;;
64235;SDS011;50564;47.402;9.740;2022-12-29T23:38:55;4.18;;;2.53;;
64235;SDS011;50564;47.402;9.740;2022-12-29T23:43:56;4.40;;;2.20;;
64235;SDS011;50564;47.402;9.740;2022-12-29T23:48:56;3.90;;;2.05;;
64235;SDS011;50564;47.402;9.740;2022-12-29T23:53:57;4.18;;;2.13;;
64235;SDS011;50564;47.402;9.740;2022-12-29T23:58:58;5.53;;;2.55;;
